Inner Beacon (Inner Reciprocal Marker) automatic weather station will be offline from 30 April 2019 for several months while the supporting marine navigation infrastructure is replaced. During this time please access nearby wind observations from Brisbane Airport and Spitfire Channel.

Latest Weather Observations for Inner Beacon

IDQ60901

Issued at 10:51 pm EST Friday 13 December 2019 (issued every 10 minutes, with the page automatically refreshed every 10 minutes)

About weather observations | Map of Brisbane area stations | Latest observations for Brisbane area | Other Formats
Station Details ID: 040926 Name: INNER RECIPROCAL MARKER Lat: -27.26 Lon: 153.24 Height: 10.0 m
Data from the previous 72 hours. | See also: Recent months at Inner Beacon
Date/Time
EST
Temp
°C
App
Temp
°C
Dew
Point
°C
Rel
Hum
%
Delta-T
°C
Wind Press
QNH
hPa
Press
MSL
hPa
Rain since
9am
mm
Dir  Spd
km/h
Gust
km/h
Spd
kts
Gust
kts
13/10:30pm - - - - - WNW 17 20 9 11 - - -
13/10:00pm - - - - - WNW 17 20 9 11 - - -
13/09:30pm - - - - - NNE 20 24 11 13 - - -
13/09:00pm - - - - - NNE 20 28 11 15 - - -
13/08:30pm - - - - - N 24 30 13 16 - - -
13/08:00pm - - - - - NNE 26 32 14 17 - - -
13/07:30pm - - - - - N 24 30 13 16 - - -
13/07:00pm - - - - - NE 28 33 15 18 - - -
13/06:30pm - - - - - E 24 35 13 19 - - -
13/06:00pm - - - - - NE 33 41 18 22 - - -
13/05:35pm - - - - - N 22 35 12 19 - - -
13/05:30pm - - - - - N 26 43 14 23 - - -
13/05:22pm - - - - - NNE 39 50 21 27 - - -
13/05:18pm - - - - - NE 39 56 21 30 - - -
13/05:05pm - - - - - E 39 85 21 46 - - -
13/05:04pm - - - - - E 35 85 19 46 - - -
13/05:01pm - - - - - SE 24 85 13 46 - - -
13/05:00pm - - - - - SE 20 54 11 29 - - -
13/04:30pm - - - - - ENE 32 48 17 26 - - -
13/04:27pm - - - - - ENE 30 48 16 26 - - -
13/04:00pm - - - - - NE 24 32 13 17 - - -
13/03:30pm - - - - - NNE 33 43 18 23 - - -
13/03:00pm - - - - - NNE 35 41 19 22 - - -
13/02:30pm - - - - - NNE 35 43 19 23 - - -
13/02:00pm - - - - - NNE 33 39 18 21 - - -
13/01:30pm - - - - - NNE 37 43 20 23 - - -
13/01:00pm - - - - - NNE 35 41 19 22 - - -
13/12:30pm - - - - - NNE 33 39 18 21 - - -
13/12:00pm - - - - - NNE 33 39 18 21 - - -
13/11:30am - - - - - NNE 35 41 19 22 - - -
13/11:00am - - - - - NNE 33 41 18 22 - - -
13/10:30am - - - - - NNE 33 41 18 22 - - -
13/10:00am - - - - - N 30 35 16 19 - - -
13/09:30am - - - - - N 30 33 16 18 - - -
13/09:00am - - - - - NNE 26 30 14 16 - - -
13/08:30am - - - - - NNE 26 30 14 16 - - -
13/08:00am - - - - - NNE 22 28 12 15 - - -
13/07:30am - - - - - N 19 24 10 13 - - -
13/07:00am - - - - - N 20 24 11 13 - - -
13/06:30am - - - - - N 17 20 9 11 - - -
13/06:00am - - - - - N 19 22 10 12 - - -
13/05:30am - - - - - N 17 22 9 12 - - -
13/05:00am - - - - - N 20 26 11 14 - - -
13/04:30am - - - - - N 20 24 11 13 - - -
13/04:00am - - - - - N 20 24 11 13 - - -
13/03:30am - - - - - N 22 28 12 15 - - -
13/03:00am - - - - - NNW 22 28 12 15 - - -
13/02:30am - - - - - N 26 30 14 16 - - -
13/02:00am - - - - - N 26 33 14 18 - - -
13/01:30am - - - - - N 32 37 17 20 - - -
13/01:00am - - - - - N 35 39 19 21 - - -
13/12:30am - - - - - N 37 44 20 24 - - -
13/12:00am - - - - - N 39 46 21 25 - - -
 
Date/Time
EST
Temp
°C
App
Temp
°C
Dew
Point
°C
Rel
Hum
%
Delta-T
°C
Wind Press
QNH
hPa
Press
MSL
hPa
Rain since
9am
mm
Dir  Spd
km/h
Gust
km/h
Spd
kts
Gust
kts
12/11:30pm - - - - - N 37 43 20 23 - - -
12/11:00pm - - - - - N 33 39 18 21 - - -
12/10:30pm - - - - - NNE 33 41 18 22 - - -
12/10:00pm - - - - - NNE 32 41 17 22 - - -
12/09:30pm - - - - - NNE 33 41 18 22 - - -
12/09:00pm - - - - - N 33 41 18 22 - - -
12/08:30pm - - - - - N 33 43 18 23 - - -
12/08:13pm - - - - - NNE 33 43 18 23 - - -
12/08:00pm - - - - - NE 39 50 21 27 - - -
12/07:30pm - - - - - NNE 30 37 16 20 - - -
12/07:00pm - - - - - NNE 30 37 16 20 - - -
12/06:30pm - - - - - NNE 32 39 17 21 - - -
12/06:00pm - - - - - NNE 37 46 20 25 - - -
12/05:30pm - - - - - NNE 39 44 21 24 - - -
12/05:00pm - - - - - NNE 37 43 20 23 - - -
12/04:30pm - - - - - NNE 33 39 18 21 - - -
12/04:00pm - - - - - NNE 33 39 18 21 - - -
12/03:30pm - - - - - NNE 33 39 18 21 - - -
12/03:00pm - - - - - NNE 35 41 19 22 - - -
12/02:30pm - - - - - NNE 30 35 16 19 - - -
12/02:00pm - - - - - NNE 32 37 17 20 - - -
12/01:30pm - - - - - NE 28 33 15 18 - - -
12/01:00pm - - - - - NE 28 33 15 18 - - -
12/12:30pm - - - - - NNE 24 28 13 15 - - -
12/12:00pm - - - - - NE 26 28 14 15 - - -
12/11:30am - - - - - NNE 24 28 13 15 - - -
12/11:00am - - - - - NE 22 26 12 14 - - -
12/10:30am - - - - - NE 17 20 9 11 - - -
12/10:00am - - - - - NNE 15 17 8 9 - - -
12/09:30am - - - - - NNE 9 11 5 6 - - -
12/09:00am - - - - - NNE 9 11 5 6 - - -
12/08:30am - - - - - NNE 9 13 5 7 - - -
12/08:00am - - - - - N 4 7 2 4 - - -
12/07:30am - - - - - NNE 4 6 2 3 - - -
12/07:00am - - - - - CALM 0 0 0 0 - - -
12/06:30am - - - - - NW 4 6 2 3 - - -
12/06:00am - - - - - NW 11 13 6 7 - - -
12/05:30am - - - - - NW 15 19 8 10 - - -
12/05:00am - - - - - NW 19 22 10 12 - - -
12/04:30am - - - - - NW 19 22 10 12 - - -
12/04:00am - - - - - NNW 24 28 13 15 - - -
12/03:30am - - - - - N 17 22 9 12 - - -
12/03:00am - - - - - NNE 28 35 15 19 - - -
12/02:30am - - - - - NNW 30 37 16 20 - - -
12/02:00am - - - - - N 17 22 9 12 - - -
12/01:45am - - - - - ENE 26 33 14 18 - - -
12/01:30am - - - - - E 39 52 21 28 - - -
12/01:24am - - - - - E 39 52 21 28 - - -
12/01:05am - - - - - SE 33 44 18 24 - - -
12/01:00am - - - - - SE 37 48 20 26 - - -
12/12:54am - - - - - SE 32 48 17 26 - - -
12/12:30am - - - - - S 24 28 13 15 - - -
12/12:00am - - - - - S 33 39 18 21 - - -
 
Date/Time
EST
Temp
°C
App
Temp
°C
Dew
Point
°C
Rel
Hum
%
Delta-T
°C
Wind Press
QNH
hPa
Press
MSL
hPa
Rain since
9am
mm
Dir  Spd
km/h
Gust
km/h
Spd
kts
Gust
kts
11/11:30pm - - - - - S 41 54 22 29 - - -
11/11:00pm - - - - - SSW 44 57 24 31 - - -
11/10:45pm - - - - - W 26 54 14 29 - - -
11/10:42pm - - - - - NW 17 54 9 29 - - -
11/10:30pm - - - - - NNE 13 15 7 8 - - -
11/10:00pm - - - - - NNE 17 22 9 12 - - -
11/09:30pm - - - - - NNE 28 37 15 20 - - -
11/09:00pm - - - - - NNE 30 39 16 21 - - -
11/08:30pm - - - - - NNE 37 43 20 23 - - -
11/08:00pm - - - - - NNE 37 44 20 24 - - -
11/07:30pm - - - - - NNE 37 43 20 23 - - -
11/07:00pm - - - - - NNE 39 46 21 25 - - -
11/06:30pm - - - - - NNE 33 41 18 22 - - -
11/06:00pm - - - - - NNE 37 43 20 23 - - -
11/05:30pm - - - - - NNE 39 44 21 24 - - -
11/05:00pm - - - - - NNE 41 46 22 25 - - -
11/04:30pm - - - - - NNE 39 44 21 24 - - -
11/04:00pm - - - - - NNE 37 43 20 23 - - -
11/03:30pm - - - - - NNE 35 43 19 23 - - -
11/03:00pm - - - - - NNE 33 39 18 21 - - -
11/02:30pm - - - - - NNE 32 35 17 19 - - -
11/02:00pm - - - - - NNE 28 33 15 18 - - -
11/01:30pm - - - - - NNE 28 33 15 18 - - -
11/01:00pm - - - - - NNE 26 30 14 16 - - -
11/12:30pm - - - - - NNE 28 33 15 18 - - -
11/12:00pm - - - - - N 24 28 13 15 - - -
11/11:30am - - - - - NNE 24 28 13 15 - - -
11/11:00am - - - - - N 22 24 12 13 - - -
11/10:30am - - - - - N 20 24 11 13 - - -
11/10:00am - - - - - N 20 24 11 13 - - -
11/09:30am - - - - - N 15 19 8 10 - - -
11/09:00am - - - - - N 9 13 5 7 - - -
11/08:30am - - - - - N 6 9 3 5 - - -
11/08:00am - - - - - NNW 4 6 2 3 - - -
11/07:30am - - - - - WNW 6 7 3 4 - - -
11/07:00am - - - - - NW 9 13 5 7 - - -
11/06:30am - - - - - NW 17 20 9 11 - - -
11/06:00am - - - - - NNW 17 19 9 10 - - -
11/05:30am - - - - - NNW 19 20 10 11 - - -
11/05:00am - - - - - NNW 22 24 12 13 - - -
11/04:30am - - - - - NNW 26 33 14 18 - - -
11/04:00am - - - - - NNW 32 37 17 20 - - -
11/03:30am - - - - - NNW 39 46 21 25 - - -
11/03:00am - - - - - NNW 39 46 21 25 - - -
11/02:30am - - - - - N 41 50 22 27 - - -
11/02:00am - - - - - N 44 50 24 27 - - -
11/01:30am - - - - - N 41 44 22 24 - - -
11/01:00am - - - - - N 37 44 20 24 - - -
11/12:30am - - - - - NNE 35 39 19 21 - - -
11/12:00am - - - - - NNE 20 24 11 13 - - -
 
Date/Time
EST
Temp
°C
App
Temp
°C
Dew
Point
°C
Rel
Hum
%
Delta-T
°C
Wind Press
QNH
hPa
Press
MSL
hPa
Rain since
9am
mm
Dir  Spd
km/h
Gust
km/h
Spd
kts
Gust
kts
10/11:30pm - - - - - N 26 30 14 16 - - -
10/11:00pm - - - - - N 35 41 19 22 - - -

Latest Capital City Observations: Canberra | Sydney | Melbourne | Brisbane | Adelaide | Perth | Hobart | Darwin

Other formats

Comma delimited format used in spreadsheet applications
http://www.bom.gov.au/fwo/IDQ60901/IDQ60901.94590.axf

JavaScript Object Notation format (JSON) in row-major order
http://www.bom.gov.au/fwo/IDQ60901/IDQ60901.94590.json

Data quality

Most of these data are generated automatically and are frequently updated. Quality checks on data are not normally performed. It is possible for incorrect values to appear. Refer to information at About Latest Weather Observations and please check the disclaimer before using these data.